Time;durP1;ratioP1;P1;durP2;ratioP2;P2;SDS_P1;SDS_P2;PMS_P1;PMS_P2;Temp;Humidity;BMP_temperature;BMP_pressure;BME280_temperature;BME280_humidity;BME280_pressure;Samples;Min_cycle;Max_cycle;Signal;HPM_P1;HPM_P2
2022/01/26 00:06:43;;;;;;;54.72;35.28;;;3.80;88.80;;;;;;5012754;28;20550;-49
2022/01/26 00:09:11;;;;;;;49.10;29.40;;;3.70;88.70;;;;;;5012490;28;20038;-49
2022/01/26 00:11:38;;;;;;;49.30;32.63;;;3.80;88.80;;;;;;5012302;28;20486;-49
2022/01/26 00:14:11;;;;;;;46.75;30.08;;;3.80;89.00;;;;;;5012636;28;20057;-49
2022/01/26 00:16:40;;;;;;;45.55;30.88;;;3.80;89.40;;;;;;5012175;28;20470;-49
2022/01/26 00:19:09;;;;;;;44.28;27.98;;;3.80;89.10;;;;;;5012307;28;20057;-51
2022/01/26 00:21:48;;;;;;;42.45;28.02;;;3.80;88.70;;;;;;5012203;28;20037;-50
2022/01/26 00:29:20;;;;;;;45.80;28.40;;;3.70;89.30;;;;;;5012225;28;20129;-49
2022/01/26 00:40:29;;;;;;;39.17;26.58;;;3.60;90.00;;;;;;5074230;28;20039;-49
2022/01/26 00:43:01;;;;;;;39.08;25.27;;;3.50;89.60;;;;;;5063872;28;20037;-49
2022/01/26 00:45:27;;;;;;;39.67;26.20;;;3.60;90.00;;;;;;5062083;28;20033;-49
2022/01/26 00:47:53;;;;;;;45.30;28.05;;;3.60;90.10;;;;;;5027878;28;20492;-49
2022/01/26 00:50:19;;;;;;;40.38;25.33;;;3.60;90.30;;;;;;5027926;28;20044;-50
2022/01/26 00:52:52;;;;;;;40.33;26.13;;;3.50;90.40;;;;;;5043375;28;20047;-49
2022/01/26 00:55:18;;;;;;;45.13;27.98;;;3.50;90.20;;;;;;5033269;28;20076;-49
2022/01/26 00:57:45;;;;;;;44.47;28.50;;;3.50;90.50;;;;;;5063316;28;20373;-49
2022/01/26 01:00:26;;;;;;;44.30;27.27;;;3.40;90.40;;;;;;4995739;28;20029;-55
2022/01/26 01:02:53;;;;;;;42.10;26.77;;;3.40;90.40;;;;;;5007633;28;20057;-50
2022/01/26 01:05:24;;;;;;;41.45;27.25;;;3.40;90.60;;;;;;4984603;28;20029;-50
2022/01/26 01:07:56;;;;;;;39.80;26.35;;;3.40;90.90;;;;;;5002032;28;20129;-50
2022/01/26 01:10:24;;;;;;;44.42;27.10;;;3.40;91.00;;;;;;4996595;28;20047;-50
2022/01/26 01:12:54;;;;;;;39.60;24.92;;;3.40;90.90;;;;;;4976689;28;20057;-50
2022/01/26 01:15:23;;;;;;;38.83;23.45;;;3.30;91.00;;;;;;4993309;28;20038;-50
2022/01/26 01:17:53;;;;;;;34.70;23.88;;;3.30;91.10;;;;;;4993679;28;20113;-50
2022/01/26 01:30:59;;;;;;;29.85;17.52;;;3.10;91.10;;;;;;4835097;29;20037;-50
2022/01/26 01:33:37;;;;;;;30.08;21.15;;;3.00;91.50;;;;;;4859762;29;20097;-51
2022/01/26 01:36:05;;;;;;;32.67;20.25;;;3.10;91.50;;;;;;4860784;29;20041;-50
2022/01/26 01:38:31;;;;;;;31.70;21.63;;;3.10;91.80;;;;;;4896949;29;20594;-50
2022/01/26 01:40:57;;;;;;;31.17;20.73;;;3.10;91.80;;;;;;4881590;29;20088;-51
2022/01/26 01:43:23;;;;;;;30.95;20.48;;;3.10;92.00;;;;;;4897244;29;20037;-51
2022/01/26 01:45:52;;;;;;;32.72;20.27;;;3.10;92.10;;;;;;4897672;29;20052;-50
2022/01/26 01:48:22;;;;;;;37.72;21.55;;;3.10;92.40;;;;;;4896954;29;20441;-64
2022/01/26 01:50:50;;;;;;;32.83;20.65;;;3.00;92.60;;;;;;4896948;29;20043;-51
2022/01/26 01:53:18;;;;;;;28.88;19.77;;;3.00;92.20;;;;;;4896753;29;20067;-51
2022/01/26 01:55:50;;;;;;;32.90;20.33;;;3.10;92.70;;;;;;4866265;29;20057;-50
2022/01/26 01:58:18;;;;;;;30.90;21.05;;;3.10;92.40;;;;;;4901238;29;20047;-50
2022/01/26 02:00:45;;;;;;;38.13;21.92;;;3.10;92.60;;;;;;4885962;29;20037;-51
2022/01/26 02:03:11;;;;;;;34.20;22.60;;;3.10;92.60;;;;;;4900555;29;20374;-49
2022/01/26 02:05:37;;;;;;;38.20;24.75;;;3.20;92.50;;;;;;4848187;29;20039;-50
2022/01/26 02:08:04;;;;;;;38.17;25.95;;;3.30;92.70;;;;;;4937567;28;20064;-50
2022/01/26 02:10:31;;;;;;;38.38;24.27;;;3.30;92.70;;;;;;5022697;28;20032;-50
2022/01/26 02:13:01;;;;;;;35.00;25.13;;;3.30;92.60;;;;;;5056748;28;20091;-51
2022/01/26 02:15:35;;;;;;;42.17;24.90;;;3.30;92.40;;;;;;5056648;28;20052;-50
2022/01/26 02:18:31;;;;;;;39.45;25.70;;;3.30;92.40;;;;;;5056414;28;20472;-50
2022/01/26 02:56:06;;;;;;;38.20;22.88;;;3.30;93.40;;;;;;5075779;28;20693;-50
2022/01/26 03:04:04;;;;;;;33.53;20.80;;;3.40;93.50;;;;;;5075728;28;20094;-51
2022/01/26 03:06:39;;;;;;;31.13;21.42;;;3.40;93.40;;;;;;5075443;28;20041;-50
2022/01/26 03:09:11;;;;;;;29.88;19.63;;;3.40;93.20;;;;;;5075520;28;20036;-50
2022/01/26 03:11:39;;;;;;;33.17;20.65;;;3.40;93.40;;;;;;5075276;28;20045;-50
2022/01/26 03:14:27;;;;;;;31.27;20.48;;;3.40;93.30;;;;;;5075369;28;20472;-51
2022/01/26 03:17:07;;;;;;;34.63;21.38;;;3.30;93.30;;;;;;5075362;28;20150;-50
2022/01/26 03:19:44;;;;;;;32.42;21.58;;;3.30;93.30;;;;;;5075118;28;20059;-50
2022/01/26 03:35:40;;;;;;;34.22;22.27;;;3.40;93.50;;;;;;5074816;28;20034;-50
2022/01/26 03:38:07;;;;;;;38.90;24.50;;;3.40;93.50;;;;;;5075156;28;20416;-50
2022/01/26 03:40:36;;;;;;;35.33;21.90;;;3.40;93.90;;;;;;5074856;28;20039;-50
2022/01/26 03:43:02;;;;;;;38.88;23.48;;;3.40;93.60;;;;;;5056531;28;20083;-50
2022/01/26 03:45:28;;;;;;;32.53;21.50;;;3.40;94.00;;;;;;5074684;28;20029;-51
2022/01/26 03:47:55;;;;;;;33.05;21.75;;;3.30;94.00;;;;;;5074418;28;20067;-50
2022/01/26 03:50:22;;;;;;;32.03;20.35;;;3.30;94.10;;;;;;5074576;28;20486;-50
2022/01/26 03:52:48;;;;;;;34.45;22.33;;;3.30;94.30;;;;;;5055966;28;20365;-50
2022/01/26 03:55:13;;;;;;;34.35;22.52;;;3.30;94.10;;;;;;5074906;28;20044;-50
2022/01/26 03:57:39;;;;;;;35.72;20.30;;;3.30;93.90;;;;;;5074869;28;20028;-50
2022/01/26 04:00:07;;;;;;;36.83;23.33;;;3.40;93.90;;;;;;5074493;28;20028;-50
2022/01/26 04:02:34;;;;;;;34.90;21.83;;;3.30;94.00;;;;;;5022672;28;20131;-50
2022/01/26 04:05:03;;;;;;;31.65;20.27;;;3.40;94.10;;;;;;5074317;28;20360;-50
2022/01/26 04:07:29;;;;;;;36.10;20.33;;;3.40;93.90;;;;;;5074147;28;20064;-50
2022/01/26 04:10:03;;;;;;;29.15;18.85;;;3.40;94.00;;;;;;5018877;28;20079;-50
2022/01/26 04:12:30;;;;;;;32.22;20.30;;;3.40;93.80;;;;;;5051888;28;20131;-50
2022/01/26 04:15:03;;;;;;;32.20;19.77;;;3.50;93.70;;;;;;5051987;28;20208;-50
2022/01/26 04:17:29;;;;;;;37.65;22.52;;;3.40;93.70;;;;;;5051951;28;20040;-49
2022/01/26 04:19:57;;;;;;;32.55;21.73;;;3.50;93.90;;;;;;5017867;28;20039;-49
2022/01/26 04:22:31;;;;;;;29.63;19.42;;;3.50;93.70;;;;;;5051769;28;20037;-50
2022/01/26 04:24:58;;;;;;;35.25;19.45;;;3.50;93.60;;;;;;5036156;28;20051;-50
2022/01/26 04:27:46;;;;;;;33.28;20.75;;;3.60;93.60;;;;;;5051627;28;20036;-50
2022/01/26 04:30:12;;;;;;;26.52;19.23;;;3.60;93.30;;;;;;5051141;28;20056;-50
2022/01/26 04:32:38;;;;;;;33.97;20.30;;;3.60;93.40;;;;;;5051548;28;20040;-50
2022/01/26 04:35:04;;;;;;;26.00;15.73;;;3.60;93.20;;;;;;5051493;28;20044;-50
2022/01/26 04:37:50;;;;;;;25.80;16.75;;;3.50;92.90;;;;;;5024680;28;20188;-50
2022/01/26 04:40:17;;;;;;;30.27;17.60;;;3.60;92.70;;;;;;5036876;28;20167;-50
2022/01/26 04:45:10;;;;;;;23.83;14.82;;;3.60;92.80;;;;;;5053911;28;20369;-50
2022/01/26 04:47:37;;;;;;;26.25;15.73;;;3.60;92.40;;;;;;5060745;28;20052;-50
2022/01/26 04:50:07;;;;;;;28.90;18.08;;;3.70;92.60;;;;;;5073997;28;20029;-54
2022/01/26 04:52:33;;;;;;;22.65;15.40;;;3.70;92.70;;;;;;5074551;28;20072;-51
2022/01/26 04:54:59;;;;;;;20.30;13.35;;;3.60;92.80;;;;;;5056905;28;20111;-49
2022/01/26 04:57:25;;;;;;;29.35;17.80;;;3.60;92.70;;;;;;5055653;28;20438;-49
2022/01/26 04:59:51;;;;;;;27.13;16.77;;;3.60;92.70;;;;;;5073528;28;20063;-50
2022/01/26 05:02:17;;;;;;;26.63;16.02;;;3.60;92.70;;;;;;5070376;28;20107;-49
2022/01/26 05:04:43;;;;;;;25.15;16.80;;;3.70;92.70;;;;;;5035415;28;20067;-49
2022/01/26 05:07:08;;;;;;;28.05;19.08;;;3.70;92.50;;;;;;5072237;28;20024;-49
2022/01/26 05:09:34;;;;;;;31.35;16.25;;;3.60;93.00;;;;;;5054517;28;20041;-49
2022/01/26 05:12:02;;;;;;;32.92;18.73;;;3.60;92.70;;;;;;5032081;28;20076;-49
2022/01/26 05:14:27;;;;;;;32.70;18.77;;;3.70;93.10;;;;;;5034724;28;20068;-49
2022/01/26 05:16:53;;;;;;;30.48;16.75;;;3.80;93.10;;;;;;5058310;28;20499;-49
2022/01/26 05:19:19;;;;;;;29.90;17.55;;;3.90;93.10;;;;;;5058391;28;20036;-49
2022/01/26 05:21:45;;;;;;;33.70;21.23;;;3.90;92.90;;;;;;5020211;28;20036;-49
2022/01/26 05:24:11;;;;;;;29.60;17.60;;;4.10;96.20;;;;;;5068752;28;20480;-49
2022/01/26 05:26:40;;;;;;;45.30;23.65;;;4.10;93.60;;;;;;5072035;28;20028;-49
2022/01/26 05:29:06;;;;;;;39.25;23.90;;;4.10;93.10;;;;;;5054061;28;20107;-49
2022/01/26 05:31:32;;;;;;;31.20;19.95;;;4.20;93.10;;;;;;5072025;28;20024;-48
2022/01/26 05:33:58;;;;;;;25.05;17.38;;;4.20;93.10;;;;;;5076066;28;20101;-49
2022/01/26 05:36:24;;;;;;;27.52;18.30;;;4.20;93.20;;;;;;5076085;28;20029;-49
2022/01/26 05:38:50;;;;;;;24.15;17.17;;;4.20;97.80;;;;;;5007519;28;20162;-49
2022/01/26 05:41:16;;;;;;;25.42;15.75;;;4.20;93.60;;;;;;5006949;28;20525;-49
2022/01/26 05:43:42;;;;;;;25.67;16.48;;;4.20;93.50;;;;;;5067128;28;20484;-49
2022/01/26 05:46:17;;;;;;;25.38;17.58;;;4.20;93.60;;;;;;5047118;28;20047;-49
2022/01/26 05:48:45;;;;;;;29.38;17.10;;;4.20;93.90;;;;;;5024514;28;20051;-49
2022/01/26 05:51:12;;;;;;;26.48;16.35;;;4.20;94.30;;;;;;5069446;28;20502;-49
2022/01/26 05:53:39;;;;;;;27.00;16.83;;;4.20;94.40;;;;;;5066095;28;20028;-48
2022/01/26 05:56:05;;;;;;;27.25;15.50;;;4.10;94.60;;;;;;5035644;28;20042;-49
2022/01/26 05:58:30;;;;;;;30.00;17.27;;;4.10;94.90;;;;;;5035876;28;20037;-49
2022/01/26 06:00:59;;;;;;;23.33;16.52;;;3.90;95.20;;;;;;5061497;28;20025;-49
2022/01/26 06:03:26;;;;;;;24.42;16.58;;;4.00;96.00;;;;;;5055738;28;20025;-49
2022/01/26 06:05:54;;;;;;;27.33;18.15;;;3.90;95.60;;;;;;5057558;28;20028;-49
2022/01/26 06:08:21;;;;;;;26.88;16.40;;;3.90;96.00;;;;;;5036082;28;20558;-48
2022/01/26 06:10:50;;;;;;;23.98;15.63;;;3.90;96.30;;;;;;5064940;28;20021;-48
2022/01/26 06:13:16;;;;;;;27.15;17.65;;;3.60;96.70;;;;;;5062996;28;20131;-49
2022/01/26 06:15:43;;;;;;;24.88;15.45;;;3.60;97.00;;;;;;5048408;28;20547;-50
2022/01/26 06:18:10;;;;;;;23.90;14.77;;;3.60;97.20;;;;;;5020032;28;20758;-49
2022/01/26 06:20:36;;;;;;;29.80;17.48;;;3.50;97.60;;;;;;5027064;28;20040;-50
2022/01/26 06:23:03;;;;;;;40.63;22.17;;;3.60;98.00;;;;;;5065440;28;20102;-50
2022/01/26 06:25:29;;;;;;;26.52;17.70;;;3.70;98.10;;;;;;5064576;28;20067;-46
2022/01/26 06:27:58;;;;;;;43.80;28.23;;;3.60;98.10;;;;;;5027993;28;20028;-48
2022/01/26 06:30:24;;;;;;;26.77;18.77;;;3.60;98.30;;;;;;5060138;28;20053;-48
2022/01/26 06:32:50;;;;;;;27.38;16.50;;;3.60;98.50;;;;;;5054755;28;20092;-48
2022/01/26 06:35:16;;;;;;;22.92;14.88;;;3.70;98.70;;;;;;5054589;28;20036;-47
2022/01/26 06:37:44;;;;;;;27.13;15.93;;;3.70;98.80;;;;;;5054748;28;20036;-47
2022/01/26 06:40:10;;;;;;;26.00;16.58;;;3.80;99.00;;;;;;5060839;28;20783;-48
2022/01/26 06:45:29;;;;;;;30.48;19.42;;;3.70;99.20;;;;;;5010124;28;20099;-47
2022/01/26 06:50:24;;;;;;;32.13;18.85;;;3.70;99.20;;;;;;5002296;28;20481;-47
2022/01/26 06:52:49;;;;;;;31.17;19.80;;;3.70;99.40;;;;;;5001036;28;20103;-48
2022/01/26 06:55:20;;;;;;;27.65;18.77;;;3.80;99.90;;;;;;5002749;28;20478;-48
2022/01/26 06:57:46;;;;;;;29.92;18.70;;;3.70;99.70;;;;;;5002456;28;20052;-48
2022/01/26 07:00:13;;;;;;;34.35;19.20;;;3.70;99.90;;;;;;5000838;28;20037;-48
2022/01/26 07:02:39;;;;;;;26.25;14.95;;;3.80;99.90;;;;;;4969429;28;20041;-47
2022/01/26 07:05:10;;;;;;;33.47;20.00;;;3.70;99.90;;;;;;5002410;28;20026;-48
2022/01/26 07:07:36;;;;;;;33.22;21.95;;;3.80;99.90;;;;;;5001020;28;20034;-48
2022/01/26 07:10:03;;;;;;;31.92;21.20;;;3.80;99.90;;;;;;5001461;28;20156;-48
2022/01/26 07:12:30;;;;;;;36.97;23.30;;;3.80;99.90;;;;;;4946195;28;20046;-48
2022/01/26 07:22:59;;;;;;;27.05;18.05;;;3.90;99.90;;;;;;5016189;28;20179;-48
2022/01/26 07:25:24;;;;;;;34.60;23.60;;;4.00;99.90;;;;;;4994153;28;20545;-47
2022/01/26 07:27:51;;;;;;;36.45;22.67;;;4.10;99.90;;;;;;4989987;28;20580;-48
2022/01/26 07:30:18;;;;;;;33.38;22.08;;;4.10;99.90;;;;;;5008280;28;20042;-48
2022/01/26 07:32:44;;;;;;;28.17;17.88;;;4.10;99.90;;;;;;5001181;28;20026;-48
2022/01/26 07:35:10;;;;;;;25.63;16.70;;;4.10;99.90;;;;;;4994278;28;20077;-47
2022/01/26 07:37:36;;;;;;;23.60;16.95;;;4.10;99.90;;;;;;4992101;28;20026;-48
2022/01/26 07:40:06;;;;;;;25.52;17.67;;;4.20;99.90;;;;;;4991851;28;20038;-48
2022/01/26 07:42:36;;;;;;;30.80;18.90;;;4.20;99.90;;;;;;4992004;28;20041;-48
2022/01/26 07:45:05;;;;;;;38.15;23.35;;;4.10;99.90;;;;;;5000488;28;20040;-48
2022/01/26 07:47:32;;;;;;;32.67;21.83;;;4.20;99.90;;;;;;5016778;28;20065;-48
2022/01/26 07:50:00;;;;;;;34.92;21.33;;;4.20;99.90;;;;;;5012460;28;20087;-47
2022/01/26 07:52:27;;;;;;;48.33;26.27;;;4.20;99.90;;;;;;5011188;28;20097;-48
2022/01/26 07:54:54;;;;;;;55.15;28.80;;;4.10;99.90;;;;;;5010429;28;20034;-48
2022/01/26 07:57:20;;;;;;;42.28;22.50;;;4.10;99.90;;;;;;5030961;28;20084;-47
2022/01/26 07:59:46;;;;;;;31.20;20.23;;;4.10;99.90;;;;;;5036083;28;20104;-47
2022/01/26 08:02:12;;;;;;;40.30;24.20;;;4.20;99.90;;;;;;5033471;28;20068;-48
2022/01/26 08:04:38;;;;;;;29.60;19.60;;;4.20;99.90;;;;;;5045082;28;20029;-48
2022/01/26 08:07:04;;;;;;;27.20;18.25;;;4.30;99.90;;;;;;5057303;28;20451;-48
2022/01/26 08:09:29;;;;;;;31.38;19.65;;;4.30;99.90;;;;;;5056596;28;20040;-48
2022/01/26 08:11:55;;;;;;;29.48;17.45;;;4.40;99.90;;;;;;5035141;28;20041;-55
2022/01/26 08:14:21;;;;;;;27.48;16.75;;;4.30;99.90;;;;;;5034136;28;20033;-48
2022/01/26 08:16:47;;;;;;;28.30;17.13;;;4.30;99.90;;;;;;5033737;28;20120;-48
2022/01/26 08:19:14;;;;;;;25.55;17.33;;;4.30;99.90;;;;;;5000970;28;20041;-48
2022/01/26 08:21:41;;;;;;;28.10;17.35;;;4.40;99.90;;;;;;5045805;28;20056;-48
2022/01/26 08:24:13;;;;;;;27.70;17.40;;;4.40;99.90;;;;;;5045320;28;20537;-56
2022/01/26 08:26:46;;;;;;;59.78;28.00;;;4.40;99.90;;;;;;5052983;28;20036;-48
2022/01/26 08:29:23;;;;;;;27.75;18.35;;;4.40;99.90;;;;;;5052828;28;20079;-49
2022/01/26 08:31:49;;;;;;;31.35;18.95;;;4.50;99.90;;;;;;5052540;28;20029;-49
2022/01/26 08:34:17;;;;;;;28.23;19.05;;;4.40;99.90;;;;;;5052755;28;20039;-48
2022/01/26 08:36:43;;;;;;;53.08;24.30;;;4.50;99.90;;;;;;5052541;28;20036;-50
2022/01/26 08:39:09;;;;;;;26.90;17.05;;;4.40;99.90;;;;;;5052010;28;20131;-48
2022/01/26 08:41:35;;;;;;;30.10;18.42;;;4.40;99.90;;;;;;5052632;28;20166;-46
2022/01/26 08:44:01;;;;;;;25.17;17.38;;;4.40;99.90;;;;;;5041553;28;20033;-47
2022/01/26 08:46:26;;;;;;;29.35;19.35;;;4.40;99.90;;;;;;5021019;28;20076;-47
2022/01/26 08:48:52;;;;;;;25.75;18.27;;;4.40;99.90;;;;;;5068169;28;20143;-48
2022/01/26 08:51:18;;;;;;;25.80;18.77;;;4.40;99.90;;;;;;5053293;28;20036;-48
2022/01/26 08:53:45;;;;;;;45.30;23.65;;;4.40;99.90;;;;;;5053860;28;20051;-47
2022/01/26 08:56:11;;;;;;;27.92;19.08;;;4.40;99.90;;;;;;5064828;28;20107;-47
2022/01/26 08:58:37;;;;;;;30.10;20.73;;;4.40;99.90;;;;;;5063120;28;20029;-47
2022/01/26 09:01:03;;;;;;;32.30;20.67;;;4.40;99.90;;;;;;5019249;28;20579;-48
2022/01/26 09:03:36;;;;;;;29.98;19.63;;;4.40;99.90;;;;;;5074917;28;20043;-49
2022/01/26 09:06:01;;;;;;;;;;;4.40;99.90;;;;;;5075691;28;20037;-48
2022/01/26 09:08:27;;;;;;;37.95;25.55;;;4.40;99.90;;;;;;5074377;28;19928;-46
2022/01/26 09:10:58;;;;;;;31.25;21.25;;;4.40;99.90;;;;;;5000020;28;20033;-48
2022/01/26 09:13:25;;;;;;;31.90;19.67;;;4.20;99.90;;;;;;5059332;28;20562;-48
2022/01/26 09:15:50;;;;;;;28.13;19.10;;;4.30;99.90;;;;;;5062269;28;20081;-48
2022/01/26 09:18:20;;;;;;;30.92;20.50;;;4.20;99.90;;;;;;5025823;28;20127;-47
2022/01/26 09:20:46;;;;;;;28.75;18.15;;;4.30;99.90;;;;;;5061106;28;20050;-48
2022/01/26 09:23:12;;;;;;;33.90;21.42;;;4.30;99.90;;;;;;4994258;28;20484;-47
2022/01/26 09:25:38;;;;;;;30.77;19.83;;;4.20;99.90;;;;;;5025306;28;20033;-48
2022/01/26 09:28:04;;;;;;;29.13;18.45;;;4.30;99.90;;;;;;5061236;28;20024;-47
2022/01/26 09:30:30;;;;;;;32.35;21.95;;;4.30;99.90;;;;;;5065213;28;20400;-47
2022/01/26 09:32:55;;;;;;;32.78;20.42;;;4.40;99.90;;;;;;5071798;28;20028;-46
2022/01/26 09:35:21;;;;;;;32.13;20.00;;;4.50;99.90;;;;;;5071805;28;20056;-48
2022/01/26 09:37:47;;;;;;;35.05;23.98;;;4.60;99.90;;;;;;5036247;28;20078;-48
2022/01/26 09:40:13;;;;;;;30.52;20.75;;;4.50;99.90;;;;;;5071771;28;20427;-52
2022/01/26 09:42:40;;;;;;;31.77;20.45;;;4.60;99.90;;;;;;5071991;28;20047;-47
2022/01/26 09:45:07;;;;;;;34.85;21.90;;;4.60;99.90;;;;;;5035727;28;20045;-48
2022/01/26 09:47:33;;;;;;;27.88;20.08;;;4.60;99.90;;;;;;5071861;28;20388;-46
2022/01/26 09:49:59;;;;;;;27.98;18.75;;;4.60;99.90;;;;;;5019862;28;20129;-46
2022/01/26 09:52:34;;;;;;;51.33;25.15;;;4.60;99.90;;;;;;5009548;28;20133;-48
2022/01/26 09:55:00;;;;;;;23.95;16.42;;;4.70;99.90;;;;;;4979567;28;20042;-47
2022/01/26 09:57:29;;;;;;;26.35;19.15;;;4.60;99.90;;;;;;4977008;28;20030;-47
2022/01/26 09:59:56;;;;;;;28.92;18.17;;;4.50;99.90;;;;;;5009621;28;20034;-49
2022/01/26 10:02:33;;;;;;;39.05;23.80;;;4.50;99.90;;;;;;5009688;28;20161;-47
2022/01/26 10:05:05;;;;;;;40.75;24.33;;;4.50;99.90;;;;;;5009207;28;20041;-48
2022/01/26 10:07:57;;;;;;;61.40;35.38;;;4.50;99.90;;;;;;5009590;28;20475;-47
2022/01/26 10:19:09;;;;;;;32.90;22.63;;;4.60;99.90;;;;;;4916048;29;20156;-49
2022/01/26 10:21:47;;;;;;;28.80;19.73;;;4.60;99.90;;;;;;4930859;29;20043;-47
2022/01/26 10:24:13;;;;;;;35.30;22.52;;;4.70;99.90;;;;;;4935348;29;20050;-48
2022/01/26 10:26:39;;;;;;;35.90;21.77;;;4.70;99.90;;;;;;4935373;29;20046;-48
2022/01/26 10:29:05;;;;;;;33.78;20.85;;;4.70;99.90;;;;;;4919123;29;20036;-46
2022/01/26 10:31:39;;;;;;;27.90;19.35;;;4.70;99.90;;;;;;4935506;29;20042;-48
2022/01/26 10:34:19;;;;;;;27.10;18.52;;;4.70;99.90;;;;;;4934629;29;20047;-48
2022/01/26 10:36:48;;;;;;;28.88;20.17;;;4.70;99.90;;;;;;4917720;29;20397;-48
2022/01/26 10:39:27;;;;;;;55.83;35.55;;;4.70;99.90;;;;;;4916173;29;20100;-47
2022/01/26 10:41:57;;;;;;;33.55;19.60;;;4.70;99.90;;;;;;4915829;29;20028;-47
2022/01/26 10:44:47;;;;;;;47.83;31.67;;;4.60;99.90;;;;;;4937371;29;20039;-47
2022/01/26 10:47:15;;;;;;;55.80;34.58;;;4.60;99.90;;;;;;4960716;28;20474;-47
2022/01/26 10:52:20;;;;;;;45.90;24.55;;;4.60;99.90;;;;;;5062325;28;20129;-45
2022/01/26 10:54:48;;;;;;;53.97;32.40;;;4.60;99.90;;;;;;5057084;28;20473;-48
2022/01/26 10:57:14;;;;;;;34.42;22.27;;;4.60;99.90;;;;;;5019020;28;20158;-47
2022/01/26 10:59:43;;;;;;;34.55;22.73;;;4.50;99.90;;;;;;5054361;28;20032;-47
2022/01/26 11:02:10;;;;;;;35.80;21.35;;;4.60;99.90;;;;;;5051333;28;20033;-47
2022/01/26 11:04:40;;;;;;;47.10;28.10;;;4.50;99.90;;;;;;5054242;28;20033;-46
2022/01/26 11:07:11;;;;;;;52.53;30.33;;;4.60;99.90;;;;;;5054307;28;20033;-47
2022/01/26 11:09:41;;;;;;;54.40;31.00;;;4.70;99.90;;;;;;5054458;28;20029;-47
2022/01/26 11:12:08;;;;;;;61.53;32.20;;;4.70;99.90;;;;;;5054147;28;20076;-46
2022/01/26 11:14:47;;;;;;;38.85;23.92;;;4.60;99.90;;;;;;5054586;28;20100;-44
2022/01/26 11:17:35;;;;;;;49.75;30.13;;;4.60;99.90;;;;;;5054081;28;20472;-45
2022/01/26 11:20:13;;;;;;;55.60;32.05;;;4.50;99.90;;;;;;5054138;28;20025;-45
2022/01/26 11:22:49;;;;;;;40.13;25.92;;;4.60;99.90;;;;;;5070948;28;20032;-50
2022/01/26 11:25:15;;;;;;;37.03;24.73;;;4.50;99.90;;;;;;5037986;28;20039;-50
2022/01/26 11:27:41;;;;;;;36.25;24.70;;;4.50;99.90;;;;;;5073405;28;20039;-49
2022/01/26 11:30:16;;;;;;;41.88;24.88;;;4.50;99.90;;;;;;5073758;28;20040;-49
2022/01/26 11:32:53;;;;;;;35.15;22.63;;;4.40;99.90;;;;;;5022628;28;20041;-51
2022/01/26 11:35:21;;;;;;;37.10;23.90;;;4.50;99.90;;;;;;5073156;28;20044;-49
2022/01/26 11:38:02;;;;;;;47.55;28.88;;;4.60;99.90;;;;;;5071413;28;20032;-49
2022/01/26 11:46:25;;;;;;;32.83;21.10;;;4.50;99.90;;;;;;5004051;28;20468;-49
2022/01/26 11:49:08;;;;;;;36.33;23.48;;;4.40;99.90;;;;;;5030431;28;20137;-50
2022/01/26 11:51:46;;;;;;;38.70;24.17;;;4.50;99.90;;;;;;5030845;28;20497;-50
2022/01/26 11:54:22;;;;;;;38.72;22.40;;;4.60;99.90;;;;;;5031081;28;20026;-50
2022/01/26 11:57:16;;;;;;;34.03;22.40;;;4.50;99.90;;;;;;5031050;28;20029;-49
2022/01/26 11:59:48;;;;;;;33.90;21.50;;;4.50;99.90;;;;;;5028708;28;20452;-50
2022/01/26 12:02:39;;;;;;;31.38;19.17;;;4.40;99.90;;;;;;5030850;28;20033;-50
2022/01/26 12:05:09;;;;;;;32.45;20.95;;;4.40;99.90;;;;;;5030803;28;20478;-49
2022/01/26 12:07:46;;;;;;;34.33;22.67;;;4.50;99.90;;;;;;5030808;28;20040;-50
2022/01/26 12:10:25;;;;;;;32.13;21.75;;;4.60;99.90;;;;;;5030300;28;20114;-52
2022/01/26 12:13:21;;;;;;;38.22;23.67;;;4.50;99.90;;;;;;5030783;28;20041;-51
2022/01/26 12:15:52;;;;;;;36.60;23.27;;;4.60;99.90;;;;;;5028863;28;20052;-50
2022/01/26 12:43:30;;;;;;;35.85;22.90;;;4.70;99.90;;;;;;4952889;29;20042;-50
2022/01/26 12:45:56;;;;;;;37.70;24.52;;;4.70;99.90;;;;;;4935993;29;20039;-50
2022/01/26 12:48:22;;;;;;;38.33;23.27;;;4.60;99.90;;;;;;4951593;29;20156;-49
2022/01/26 12:50:49;;;;;;;39.65;24.42;;;4.60;99.90;;;;;;4951520;29;20038;-50
2022/01/26 12:53:21;;;;;;;36.13;23.80;;;4.60;99.90;;;;;;4948346;29;20054;-50
2022/01/26 12:55:52;;;;;;;;;;;4.60;99.90;;;;;;4952441;29;20031;-50
2022/01/26 12:58:26;;;;;;;39.15;23.60;;;4.60;99.90;;;;;;4952011;29;19917;-48
2022/01/26 13:00:52;;;;;;;40.85;25.65;;;4.60;99.90;;;;;;4919045;29;20150;-49
2022/01/26 13:03:19;;;;;;;37.88;24.48;;;4.60;99.90;;;;;;4931865;29;20074;-49
2022/01/26 13:05:46;;;;;;;38.13;26.10;;;4.60;99.90;;;;;;4932007;29;20036;-46
2022/01/26 13:08:12;;;;;;;34.22;23.75;;;4.60;99.90;;;;;;4931908;29;20071;-49
2022/01/26 13:10:38;;;;;;;36.97;25.23;;;4.70;99.90;;;;;;4932430;29;20024;-50
2022/01/26 13:13:22;;;;;;;39.67;24.73;;;4.80;99.90;;;;;;4926773;29;20047;-50
2022/01/26 13:16:04;;;;;;;32.50;21.83;;;4.80;99.90;;;;;;4989203;28;20042;-50
2022/01/26 13:21:30;;;;;;;33.75;24.48;;;4.70;99.90;;;;;;5009869;28;20508;-52
2022/01/26 13:26:51;;;;;;;34.40;21.85;;;4.90;99.90;;;;;;4988361;28;20509;-51
2022/01/26 13:29:40;;;;;;;43.22;27.42;;;4.70;99.90;;;;;;5009850;28;20038;-48
2022/01/26 13:37:23;;;;;;;35.55;23.15;;;5.00;99.90;;;;;;5032403;28;20028;-50
2022/01/26 13:39:57;;;;;;;39.90;23.75;;;5.00;99.90;;;;;;5063554;28;20032;-47
2022/01/26 13:53:34;;;;;;;38.08;24.42;;;4.80;99.90;;;;;;4972383;28;20435;-50
2022/01/26 13:56:13;;;;;;;43.88;28.85;;;4.90;99.90;;;;;;4993285;28;20171;-51
2022/01/26 13:58:46;;;;;;;34.22;21.77;;;4.90;99.90;;;;;;4993864;28;20049;-50
2022/01/26 14:01:18;;;;;;;30.85;20.92;;;4.80;99.90;;;;;;4993685;28;20133;-51
2022/01/26 14:03:47;;;;;;;28.15;18.23;;;4.90;99.90;;;;;;4978163;28;20453;-50
2022/01/26 14:06:13;;;;;;;35.95;23.38;;;4.60;99.90;;;;;;4993474;28;20038;-51
2022/01/26 14:08:40;;;;;;;35.20;24.27;;;4.60;99.90;;;;;;4993946;28;20041;-50
2022/01/26 14:11:07;;;;;;;33.10;24.52;;;4.50;99.90;;;;;;4977411;28;20045;-51
2022/01/26 14:13:35;;;;;;;37.00;25.20;;;4.60;99.90;;;;;;4961216;28;20055;-49
2022/01/26 14:16:01;;;;;;;36.92;24.17;;;4.60;99.90;;;;;;4993449;28;20457;-50
2022/01/26 14:19:06;;;;;;;31.80;22.02;;;4.70;99.90;;;;;;4961174;28;20603;-50
2022/01/26 14:21:30;;;;;;;40.95;24.65;;;4.70;99.90;;;;;;4970463;28;20043;-49
2022/01/26 14:24:10;;;;;;;44.78;29.58;;;4.90;99.90;;;;;;4974198;28;20042;-51
2022/01/26 14:26:36;;;;;;;31.40;20.90;;;4.80;99.90;;;;;;4988344;28;20053;-51
2022/01/26 14:29:07;;;;;;;36.80;26.02;;;4.80;99.90;;;;;;5016500;28;20037;-52
2022/01/26 14:31:53;;;;;;;46.35;29.88;;;;;;;;;;5074774;28;20111;-51
2022/01/26 15:10:32;;;;;;;42.80;28.52;;;5.50;99.90;;;;;;5020831;28;20083;-50
2022/01/26 15:22:05;;;;;;;33.55;21.67;;;5.10;99.90;;;;;;5043649;28;20033;-50
2022/01/26 15:49:55;;;;;;;40.42;25.67;;;4.90;99.90;;;;;;5063057;28;20039;-48
2022/01/26 15:52:47;;;;;;;47.85;28.95;;;4.90;99.90;;;;;;5061488;28;20111;-48
2022/01/26 16:06:17;;;;;;;34.38;24.67;;;5.10;99.90;;;;;;5043427;28;20115;-47
2022/01/26 16:38:03;;;;;;;55.22;33.97;;;5.30;99.90;;;;;;5069083;28;20107;-48
2022/01/26 17:03:01;;;;;;;40.40;26.83;;;5.00;99.90;;;;;;5066843;28;20046;-48
2022/01/26 18:25:51;;;;;;;63.58;37.33;;;5.60;99.90;;;;;;5049555;28;20480;-48
2022/01/26 18:26:48;;;;;;;73.10;41.03;;;5.50;99.90;;;;;;5067475;28;20376;-46
2022/01/26 18:50:47;;;;;;;33.47;23.20;;;5.70;99.90;;;;;;4989290;28;20128;-46
2022/01/26 18:53:13;;;;;;;36.22;24.00;;;5.60;99.90;;;;;;4989581;28;20042;-49
2022/01/26 18:55:39;;;;;;;33.17;21.83;;;5.60;99.90;;;;;;4957992;28;20041;-48
2022/01/26 18:58:05;;;;;;;29.75;19.80;;;5.60;99.90;;;;;;4963231;28;20038;-49
2022/01/26 19:00:31;;;;;;;34.78;22.67;;;5.60;99.90;;;;;;4990541;28;20758;-45
2022/01/26 19:02:59;;;;;;;29.98;20.77;;;5.50;99.90;;;;;;4990390;28;20034;-47
2022/01/26 19:05:26;;;;;;;35.17;24.15;;;5.40;99.90;;;;;;4988706;28;20046;-48
2022/01/26 19:07:54;;;;;;;31.73;21.15;;;5.40;99.90;;;;;;4989965;28;20108;-50
2022/01/26 19:10:20;;;;;;;31.35;20.92;;;5.40;99.90;;;;;;4990404;28;20038;-51
2022/01/26 19:12:46;;;;;;;38.70;22.60;;;5.40;99.90;;;;;;4988820;28;20465;-49
2022/01/26 19:15:16;;;;;;;38.88;25.73;;;5.20;99.90;;;;;;4992872;28;20659;-46
2022/01/26 19:18:06;;;;;;;38.45;26.00;;;5.20;99.90;;;;;;4990322;28;20552;-50
2022/01/26 19:26:07;;;;;;;33.80;24.02;;;5.10;99.90;;;;;;4990732;28;20053;-50
2022/01/26 19:28:38;;;;;;;31.92;22.50;;;5.10;99.90;;;;;;5014936;28;20043;-50
2022/01/26 19:44:47;;;;;;;36.80;24.95;;;5.10;99.90;;;;;;5067162;28;20047;-55
2022/01/26 19:52:55;;;;;;;41.63;28.13;;;5.00;99.90;;;;;;4961659;28;20057;-47